Time;durP1;ratioP1;P1;durP2;ratioP2;P2;SDS_P1;SDS_P2;PMS_P1;PMS_P2;Temp;Humidity;BMP_temperature;BMP_pressure;BME280_temperature;BME280_humidity;BME280_pressure;Samples;Min_cycle;Max_cycle;Signal;HPM_P1;HPM_P2
2023/09/04 00:01:20;;;;;;;4.13;3.58;;;;;;;20.83;65.42;100980.53;4937835;28;20522;-82
2023/09/04 00:03:46;;;;;;;5.10;4.10;;;;;;;20.86;65.75;100976.63;4885829;28;20043;-82
2023/09/04 00:06:13;;;;;;;5.60;4.13;;;;;;;20.85;64.79;100985.78;4941489;28;20483;-83
2023/09/04 00:08:40;;;;;;;4.60;4.03;;;;;;;20.83;64.90;100980.53;4940400;28;20081;-84
2023/09/04 00:11:07;;;;;;;5.43;3.97;;;;;;;20.81;65.65;100971.75;4917234;28;20469;-82
2023/09/04 00:13:34;;;;;;;4.65;4.05;;;;;;;20.78;65.26;100964.84;4914881;28;20047;-82
2023/09/04 00:16:00;;;;;;;5.05;3.78;;;;;;;20.77;65.03;100970.44;4924138;28;20055;-84
2023/09/04 00:18:27;;;;;;;4.50;3.72;;;;;;;20.78;65.67;100980.22;4908535;28;20099;-82
2023/09/04 00:20:54;;;;;;;5.95;3.97;;;;;;;20.77;65.79;100970.44;4938006;28;20399;-83
2023/09/04 00:23:21;;;;;;;7.03;4.20;;;;;;;20.72;65.97;100967.44;4954152;28;20051;-82
2023/09/04 00:25:47;;;;;;;6.00;4.05;;;;;;;20.72;65.81;100965.56;4910879;28;20161;-83
2023/09/04 00:28:18;;;;;;;4.90;4.40;;;;;;;20.68;64.79;100964.22;4922743;28;20142;-83
2023/09/04 00:30:45;;;;;;;5.65;4.10;;;;;;;20.65;64.38;100966.44;4940450;28;20174;-83
2023/09/04 00:33:12;;;;;;;5.45;3.65;;;;;;;20.65;63.96;100963.75;4942349;28;20134;-83
2023/09/04 00:35:38;;;;;;;5.70;3.72;;;;;;;20.67;64.60;100969.81;4896005;29;20510;-82
2023/09/04 00:38:05;;;;;;;6.18;4.18;;;;;;;20.67;63.98;100965.25;4926302;28;20043;-82
2023/09/04 00:40:32;;;;;;;5.25;4.30;;;;;;;20.68;64.08;100966.09;4953613;28;20480;-82
2023/09/04 00:42:59;;;;;;;7.38;4.15;;;;;;;20.66;64.16;100960.00;4908981;28;20396;-82
2023/09/04 00:45:27;;;;;;;4.07;3.60;;;;;;;20.57;63.53;100961.91;4930101;28;20293;-83
2023/09/04 00:47:54;;;;;;;4.20;3.42;;;;;;;20.63;64.67;100955.81;4920901;28;20047;-81
2023/09/04 00:50:25;;;;;;;3.25;2.95;;;;;;;20.52;63.71;100948.91;4943016;28;20098;-82
2023/09/04 00:52:55;;;;;;;8.40;4.38;;;;;;;20.41;62.51;100945.75;4895710;28;20043;-82
2023/09/04 00:55:23;;;;;;;5.53;3.90;;;;;;;20.48;63.02;100942.19;4908751;28;20115;-82
2023/09/04 00:57:51;;;;;;;4.05;3.60;;;;;;;20.45;62.74;100945.19;4920078;29;20056;-82
2023/09/04 01:00:22;;;;;;;5.57;3.75;;;;;;;20.40;62.38;100950.28;4940060;28;20499;-82
2023/09/04 01:02:50;;;;;;;4.35;3.80;;;;;;;20.37;62.41;100958.72;4938968;28;20113;-83
2023/09/04 01:05:17;;;;;;;4.68;3.85;;;;;;;20.36;62.75;100960.59;4926176;28;20050;-82
2023/09/04 01:07:45;;;;;;;4.90;3.50;;;;;;;20.33;62.50;100966.31;4912666;29;20047;-82
2023/09/04 01:10:12;;;;;;;7.68;3.90;;;;;;;20.37;62.68;100961.41;4941748;28;20051;-83
2023/09/04 01:12:59;;;;;;;4.47;4.00;;;;;;;20.34;61.94;100961.78;4923466;28;20439;-82
2023/09/04 01:15:26;;;;;;;5.72;3.70;;;;;;;20.39;63.36;100959.41;4929640;28;20119;-82
2023/09/04 01:17:53;;;;;;;5.22;4.30;;;;;;;20.41;63.95;100959.22;4937989;28;20131;-82
2023/09/04 01:20:28;;;;;;;6.65;3.75;;;;;;;20.37;64.40;100961.41;4923449;28;20047;-82
2023/09/04 01:22:55;;;;;;;5.40;3.67;;;;;;;20.38;64.23;100957.72;4935551;28;20392;-82
2023/09/04 01:25:38;;;;;;;4.75;3.60;;;;;;;20.27;62.16;100960.75;4941713;28;20043;-82
2023/09/04 01:28:24;;;;;;;4.43;3.72;;;;;;;20.26;62.33;100956.41;4937795;28;20115;-83
2023/09/04 01:31:14;;;;;;;5.18;3.65;;;;;;;20.23;62.00;100960.28;4941389;28;20051;-82
2023/09/04 01:33:50;;;;;;;4.68;3.60;;;;;;;20.25;62.15;100968.19;4912628;28;20463;-82
2023/09/04 01:36:17;;;;;;;7.82;4.25;;;;;;;20.24;62.53;100961.13;4914320;28;20110;-82
2023/09/04 01:38:45;;;;;;;6.82;4.47;;;;;;;20.23;62.68;100962.13;4927136;28;20039;-82
2023/09/04 01:41:14;;;;;;;3.90;3.50;;;;;;;20.21;62.60;100970.38;4927474;28;20048;-82
2023/09/04 01:43:41;;;;;;;4.95;3.60;;;;;;;20.17;62.50;100969.03;4937249;28;20132;-82
2023/09/04 01:46:08;;;;;;;5.05;3.90;;;;;;;20.23;62.90;100968.38;4912720;28;20456;-82
2023/09/04 01:48:35;;;;;;;8.68;3.70;;;;;;;20.22;63.03;100955.03;4927204;28;20043;-82
2023/09/04 01:51:02;;;;;;;5.68;3.95;;;;;;;20.22;63.88;100953.19;4944813;28;20130;-82
2023/09/04 01:53:29;;;;;;;4.70;3.70;;;;;;;20.19;63.49;100958.94;4950915;28;20114;-83
2023/09/04 01:55:56;;;;;;;6.03;3.75;;;;;;;20.23;63.24;100954.88;4925451;29;20055;-82
2023/09/04 01:58:22;;;;;;;3.95;3.55;;;;;;;20.17;62.83;100951.03;4909759;28;20560;-82
2023/09/04 02:00:50;;;;;;;5.45;3.58;;;;;;;20.15;62.58;100952.22;4910251;28;20083;-84
2023/09/04 02:03:17;;;;;;;5.30;4.10;;;;;;;20.09;62.46;100952.88;4926141;28;20491;-82
2023/09/04 02:05:44;;;;;;;5.28;4.07;;;;;;;20.00;62.66;100953.88;4911566;28;20091;-82
2023/09/04 02:08:11;;;;;;;10.52;4.13;;;;;;;20.04;62.53;100950.69;4929791;28;20082;-82
2023/09/04 02:10:37;;;;;;;4.65;3.75;;;;;;;20.06;62.94;100961.31;4922424;28;20088;-82
2023/09/04 02:13:04;;;;;;;6.97;4.10;;;;;;;20.05;62.91;100944.28;4923135;28;20119;-82
2023/09/04 02:15:31;;;;;;;4.95;3.65;;;;;;;20.07;62.82;100947.63;4913682;28;20118;-82
2023/09/04 02:18:04;;;;;;;5.88;3.45;;;;;;;20.02;62.97;100955.41;4895730;28;20091;-83
2023/09/04 02:20:30;;;;;;;;;;;;;;;19.80;63.54;100961.50;4941175;28;20047;-82
2023/09/04 02:22:57;;;;;;;5.47;3.55;;;;;;;19.97;63.42;100955.06;4908263;28;19926;-82
2023/09/04 02:25:25;;;;;;;4.70;3.72;;;;;;;19.95;63.39;100963.34;4931928;28;20047;-84
2023/09/04 02:27:53;;;;;;;4.88;4.03;;;;;;;19.90;63.03;100957.63;4926135;28;20040;-82
2023/09/04 02:30:21;;;;;;;6.60;3.78;;;;;;;19.88;62.97;100959.63;4938304;28;20115;-82
2023/09/04 02:32:47;;;;;;;6.82;3.40;;;;;;;19.89;63.02;100955.06;4912121;28;20101;-82
2023/09/04 02:35:14;;;;;;;5.18;4.20;;;;;;;19.79;62.93;100966.03;4938280;28;20066;-82
2023/09/04 02:37:42;;;;;;;5.28;3.72;;;;;;;19.86;63.47;100958.13;4922459;28;20391;-82
2023/09/04 02:40:11;;;;;;;6.07;4.07;;;;;;;19.89;63.35;100963.16;4896083;28;20039;-83
2023/09/04 02:42:38;;;;;;;5.72;4.03;;;;;;;19.87;63.19;100955.25;4898950;28;20052;-84
2023/09/04 02:45:07;;;;;;;6.00;4.22;;;;;;;19.87;63.02;100960.66;4906524;28;20408;-82
2023/09/04 02:47:35;;;;;;;5.90;3.60;;;;;;;19.87;62.85;100951.69;4951851;28;20057;-83
2023/09/04 02:50:05;;;;;;;6.65;3.92;;;;;;;19.86;63.37;100942.78;4921880;28;20044;-82
2023/09/04 02:52:33;;;;;;;6.00;3.58;;;;;;;19.89;63.31;100945.13;4925742;28;20058;-82
2023/09/04 02:55:02;;;;;;;5.55;4.00;;;;;;;19.86;63.22;100941.94;4936762;28;20115;-83
2023/09/04 02:57:32;;;;;;;6.20;3.85;;;;;;;19.86;63.58;100945.47;4896686;28;20044;-83
2023/09/04 02:59:59;;;;;;;6.10;3.83;;;;;;;19.85;63.01;100934.88;4917089;28;20095;-82
2023/09/04 03:02:26;;;;;;;4.57;3.55;;;;;;;19.82;63.10;100940.59;4916953;28;20039;-83
2023/09/04 03:04:54;;;;;;;4.85;4.10;;;;;;;19.75;63.04;100942.28;4913934;28;20067;-83
2023/09/04 03:07:22;;;;;;;6.13;4.07;;;;;;;19.65;63.16;100945.97;4927064;28;20095;-82
2023/09/04 03:09:55;;;;;;;4.13;3.70;;;;;;;19.71;62.99;100948.00;4922533;28;20059;-82
2023/09/04 03:12:26;;;;;;;5.10;3.55;;;;;;;19.70;63.18;100950.88;4927955;28;20047;-82
2023/09/04 03:15:05;;;;;;;5.47;4.10;;;;;;;19.48;63.44;100946.94;4930207;28;20056;-81
2023/09/04 03:17:33;;;;;;;5.05;4.30;;;;;;;19.53;63.46;100950.81;4926505;28;20039;-82
2023/09/04 03:20:04;;;;;;;5.43;3.88;;;;;;;19.52;63.71;100953.69;4908465;28;20070;-82
2023/09/04 03:22:32;;;;;;;4.85;3.83;;;;;;;19.47;63.54;100956.06;4913448;28;20494;-82
2023/09/04 03:24:59;;;;;;;6.00;3.90;;;;;;;19.55;63.96;100955.22;4941299;28;20055;-82
2023/09/04 03:27:30;;;;;;;5.10;3.75;;;;;;;19.57;63.51;100961.28;4925573;28;20048;-83
2023/09/04 03:29:57;;;;;;;4.40;4.00;;;;;;;19.48;63.76;100963.09;4901068;28;20055;-83
2023/09/04 03:32:25;;;;;;;5.93;3.85;;;;;;;19.54;63.78;100957.06;4897595;28;20050;-82
2023/09/04 03:34:52;;;;;;;8.00;4.70;;;;;;;19.50;64.09;100959.25;4936145;28;20048;-83
2023/09/04 03:37:19;;;;;;;5.15;4.00;;;;;;;19.50;63.65;100964.63;4914354;28;20388;-82
2023/09/04 03:39:46;;;;;;;4.80;4.32;;;;;;;19.49;63.90;100965.66;4940314;28;20099;-82
2023/09/04 03:42:13;;;;;;;5.20;3.85;;;;;;;19.49;63.86;100965.66;4928378;29;20495;-82
2023/09/04 03:44:39;;;;;;;4.85;4.13;;;;;;;19.38;64.05;100965.13;4918355;28;20071;-83
2023/09/04 03:47:06;;;;;;;4.10;3.70;;;;;;;19.36;63.85;100975.19;4953219;28;20122;-82
2023/09/04 03:49:33;;;;;;;7.28;4.72;;;;;;;19.38;63.92;100970.50;4928046;28;20046;-82
2023/09/04 03:52:00;;;;;;;6.75;4.60;;;;;;;19.41;64.05;100967.47;4909943;28;20051;-82
2023/09/04 03:54:29;;;;;;;4.60;4.13;;;;;;;19.44;64.11;100968.00;4929190;28;20567;-88
2023/09/04 03:56:56;;;;;;;5.68;4.45;;;;;;;19.45;64.38;100968.84;4952547;28;20044;-83
2023/09/04 03:59:23;;;;;;;7.53;4.32;;;;;;;19.48;64.49;100963.09;4944543;28;20130;-83
2023/09/04 04:01:51;;;;;;;5.28;3.58;;;;;;;19.43;64.45;100966.28;4943902;28;20078;-82
2023/09/04 04:04:18;;;;;;;7.10;4.25;;;;;;;19.40;64.19;100968.50;4927315;28;20454;-84
2023/09/04 04:06:45;;;;;;;5.43;3.92;;;;;;;19.40;64.05;100971.19;4913088;28;20043;-83
2023/09/04 04:09:13;;;;;;;9.38;4.50;;;;;;;19.36;63.79;100972.50;4927084;28;20048;-83
2023/09/04 04:11:40;;;;;;;6.75;4.10;;;;;;;19.19;64.65;100975.19;4933277;28;20051;-82
2023/09/04 04:14:07;;;;;;;5.85;4.78;;;;;;;19.21;64.37;100969.59;4918675;28;20096;-82
2023/09/04 04:16:36;;;;;;;5.57;4.38;;;;;;;19.28;64.39;100981.41;4925838;28;20962;-82
2023/09/04 04:19:04;;;;;;;7.63;4.80;;;;;;;19.24;64.53;100975.53;4915468;28;20122;-82
2023/09/04 04:21:31;;;;;;;5.45;4.10;;;;;;;19.27;64.68;100979.75;4914381;28;20050;-82
2023/09/04 04:23:58;;;;;;;4.60;4.20;;;;;;;19.29;64.49;100972.34;4937637;28;20603;-82
2023/09/04 04:26:25;;;;;;;5.35;4.55;;;;;;;19.29;64.59;100973.19;4925740;28;20053;-82
2023/09/04 04:28:52;;;;;;;6.13;4.43;;;;;;;19.30;64.63;100974.84;4922757;28;20672;-82
2023/09/04 04:31:21;;;;;;;5.55;4.53;;;;;;;19.26;64.52;100973.53;4930075;28;20399;-82
2023/09/04 04:33:48;;;;;;;4.70;4.07;;;;;;;19.31;64.92;100983.81;4922408;28;20051;-82
2023/09/04 04:36:15;;;;;;;5.03;3.95;;;;;;;19.28;65.25;100978.72;4903251;28;20835;-82
2023/09/04 04:38:42;;;;;;;9.05;4.65;;;;;;;19.28;65.33;100979.59;4929065;28;20159;-82
2023/09/04 04:41:08;;;;;;;7.63;4.53;;;;;;;19.26;64.61;100989.69;4910907;28;20149;-82
2023/09/04 04:43:36;;;;;;;6.63;4.47;;;;;;;19.31;64.83;100986.50;4949129;28;20380;-82
2023/09/04 04:46:04;;;;;;;6.38;4.30;;;;;;;19.29;64.83;100989.34;4903476;29;20103;-82
2023/09/04 04:48:31;;;;;;;6.55;4.68;;;;;;;19.28;64.77;100995.75;4906155;28;20054;-82
2023/09/04 04:50:58;;;;;;;4.60;4.20;;;;;;;19.29;64.81;100991.19;4939095;28;20452;-82
2023/09/04 04:53:27;;;;;;;5.10;4.45;;;;;;;19.26;64.57;100994.22;4941396;28;20051;-82
2023/09/04 04:55:53;;;;;;;6.20;4.75;;;;;;;19.23;64.87;100984.63;4910077;28;20086;-82
2023/09/04 04:58:21;;;;;;;12.15;5.03;;;;;;;19.26;64.75;100980.75;4924910;28;20050;-82
2023/09/04 05:00:48;;;;;;;5.70;4.18;;;;;;;19.20;64.55;100986.78;4916438;29;20507;-82
2023/09/04 05:03:15;;;;;;;5.90;4.38;;;;;;;19.21;64.59;100996.53;4911351;28;20530;-81
2023/09/04 05:05:47;;;;;;;6.97;4.25;;;;;;;19.19;64.58;100998.56;4917771;28;20051;-82
2023/09/04 05:08:13;;;;;;;4.95;4.43;;;;;;;19.13;64.58;100978.50;4923046;28;20484;-82
2023/09/04 05:10:41;;;;;;;4.65;4.25;;;;;;;19.08;64.91;100987.09;4951770;28;20364;-82
2023/09/04 05:13:08;;;;;;;4.88;4.40;;;;;;;19.16;65.18;100980.03;4949920;28;20043;-82
2023/09/04 05:15:35;;;;;;;6.80;4.50;;;;;;;19.14;64.93;100977.53;4895941;28;21096;-82
2023/09/04 05:18:03;;;;;;;5.13;4.63;;;;;;;19.14;64.86;100977.53;4940787;28;20570;-82
2023/09/04 05:20:30;;;;;;;8.63;4.75;;;;;;;19.11;64.67;100966.22;4921630;28;20048;-82
2023/09/04 05:22:57;;;;;;;7.38;4.22;;;;;;;19.11;64.83;100964.38;4938290;28;20075;-82
2023/09/04 05:25:28;;;;;;;4.68;4.00;;;;;;;19.01;64.91;100966.38;4912174;28;20131;-82
2023/09/04 05:27:55;;;;;;;5.10;4.60;;;;;;;19.04;65.21;100974.13;4938233;28;20035;-81
2023/09/04 05:30:22;;;;;;;5.65;4.35;;;;;;;18.95;65.40;100983.16;4944815;28;20051;-82
2023/09/04 05:32:52;;;;;;;6.32;4.70;;;;;;;18.90;65.66;100978.25;4950682;28;20071;-82
2023/09/04 05:35:19;;;;;;;4.28;3.88;;;;;;;18.87;65.71;100979.44;4935350;28;20138;-82
2023/09/04 05:37:46;;;;;;;7.47;4.55;;;;;;;18.85;66.16;100980.59;4925183;28;20107;-82
2023/09/04 05:40:12;;;;;;;6.30;4.38;;;;;;;18.89;66.09;100981.97;4926030;28;20047;-82
2023/09/04 05:42:39;;;;;;;4.95;4.50;;;;;;;18.89;65.82;100981.13;4920817;28;20058;-82
2023/09/04 05:45:07;;;;;;;5.95;4.65;;;;;;;18.91;65.98;100979.13;4949989;28;20130;-82
2023/09/04 05:47:33;;;;;;;5.68;4.35;;;;;;;18.89;66.67;100983.81;4926795;28;20130;-82
2023/09/04 05:50:00;;;;;;;4.97;4.35;;;;;;;18.86;66.16;100966.16;4908510;28;20059;-82
2023/09/04 05:52:27;;;;;;;4.65;3.92;;;;;;;18.92;66.53;100970.88;4949474;28;20099;-82
2023/09/04 05:54:54;;;;;;;6.28;4.72;;;;;;;18.95;66.57;100962.47;4894402;28;20051;-82
2023/09/04 05:57:21;;;;;;;5.00;4.50;;;;;;;18.91;66.53;100971.06;4903881;28;20102;-82
2023/09/04 05:59:48;;;;;;;5.90;4.47;;;;;;;18.90;66.32;100975.56;4925029;28;20047;-82
2023/09/04 06:02:14;;;;;;;7.03;4.22;;;;;;;18.97;66.45;100976.59;4920301;28;20062;-82
2023/09/04 06:04:41;;;;;;;6.88;4.53;;;;;;;18.94;66.19;100973.41;4952403;28;20036;-81
2023/09/04 06:07:10;;;;;;;5.05;4.22;;;;;;;19.00;66.39;100970.06;4930654;28;20043;-82
2023/09/04 06:09:40;;;;;;;5.22;4.50;;;;;;;18.99;66.54;100980.00;4902378;28;20055;-82
2023/09/04 06:12:11;;;;;;;4.57;4.00;;;;;;;19.00;66.60;100973.59;4923699;28;20039;-82
2023/09/04 06:14:38;;;;;;;5.47;4.45;;;;;;;19.01;67.06;100972.59;4926422;28;20236;-82
2023/09/04 06:17:05;;;;;;;6.25;4.68;;;;;;;19.03;67.03;100970.59;4950757;28;20040;-82
2023/09/04 06:19:32;;;;;;;5.75;4.43;;;;;;;19.07;66.65;100969.25;4924209;28;20103;-82
2023/09/04 06:21:59;;;;;;;5.28;4.38;;;;;;;19.08;66.61;100970.06;4940360;28;20035;-82
2023/09/04 06:24:25;;;;;;;5.75;3.90;;;;;;;19.09;66.48;100967.22;4906122;28;20047;-82
2023/09/04 06:26:52;;;;;;;5.97;4.75;;;;;;;19.15;66.96;100978.34;4950936;28;20047;-82
2023/09/04 06:29:20;;;;;;;6.40;4.13;;;;;;;19.12;66.95;100981.38;4948967;28;20472;-82
2023/09/04 06:31:47;;;;;;;6.57;4.65;;;;;;;19.19;67.20;100985.13;4926319;28;20534;-81
2023/09/04 06:34:14;;;;;;;6.38;4.85;;;;;;;19.17;67.07;100981.72;4920282;28;20047;-82
2023/09/04 06:36:40;;;;;;;8.13;4.43;;;;;;;19.16;66.60;100971.94;4939794;28;20046;-81
2023/09/04 06:39:07;;;;;;;7.35;4.30;;;;;;;19.15;67.30;100971.13;4924505;28;20062;-82
2023/09/04 06:41:34;;;;;;;7.03;4.20;;;;;;;19.20;67.08;100974.16;4903337;28;20043;-82
2023/09/04 06:44:02;;;;;;;6.47;4.82;;;;;;;19.22;67.07;100971.31;4937759;28;20106;-82
2023/09/04 06:46:29;;;;;;;6.32;4.63;;;;;;;19.19;67.20;100975.19;4920073;28;20039;-82
2023/09/04 06:48:56;;;;;;;4.65;4.22;;;;;;;19.19;66.95;100969.78;4904645;28;20115;-82
2023/09/04 06:51:23;;;;;;;6.88;4.80;;;;;;;19.20;67.18;100971.47;4897987;28;20803;-82
2023/09/04 06:53:50;;;;;;;6.43;4.90;;;;;;;19.21;67.03;100967.78;4919074;28;20050;-82
2023/09/04 06:56:17;;;;;;;6.72;4.47;;;;;;;19.23;67.30;100965.78;4936875;28;20047;-82
2023/09/04 06:58:43;;;;;;;5.90;4.72;;;;;;;19.26;67.62;100965.44;4923764;28;20044;-81
2023/09/04 07:01:10;;;;;;;6.45;4.45;;;;;;;19.33;67.46;100962.06;4949877;28;20511;-82
2023/09/04 07:03:37;;;;;;;9.55;4.45;;;;;;;19.39;67.30;100959.56;4920448;28;20057;-82
2023/09/04 07:06:04;;;;;;;5.47;4.25;;;;;;;19.44;67.22;100959.91;4939948;28;20052;-82
2023/09/04 07:08:31;;;;;;;5.30;4.00;;;;;;;19.45;67.02;100955.38;4904752;28;20526;-82
2023/09/04 07:10:58;;;;;;;4.75;4.10;;;;;;;19.47;67.23;100956.06;4916312;28;20051;-82
2023/09/04 07:13:25;;;;;;;5.82;4.15;;;;;;;19.49;66.94;100957.56;4929971;28;20043;-82
2023/09/04 07:15:52;;;;;;;8.02;4.78;;;;;;;19.61;67.09;100955.38;4949107;28;20047;-82
2023/09/04 07:18:19;;;;;;;5.50;3.53;;;;;;;19.54;67.35;100946.28;4925810;28;20049;-82
2023/09/04 07:20:45;;;;;;;6.22;4.28;;;;;;;19.59;67.20;100949.34;4926177;28;20107;-82
2023/09/04 07:23:12;;;;;;;4.57;4.10;;;;;;;19.64;67.21;100946.97;4904968;28;20047;-82
2023/09/04 07:25:48;;;;;;;4.53;3.90;;;;;;;19.67;67.07;100946.66;4927938;28;20043;-82
2023/09/04 07:28:15;;;;;;;7.20;3.90;;;;;;;19.64;67.19;100952.38;4915829;28;20054;-82
2023/09/04 07:30:41;;;;;;;6.18;4.05;;;;;;;19.66;66.78;100954.88;4926595;28;20095;-82
2023/09/04 07:33:08;;;;;;;7.63;4.60;;;;;;;19.72;66.84;100946.16;4909368;28;20043;-82
2023/09/04 07:35:35;;;;;;;4.20;3.72;;;;;;;19.77;66.29;100942.94;4916805;28;20046;-82
2023/09/04 07:38:02;;;;;;;4.68;4.10;;;;;;;19.77;66.33;100933.03;4919307;28;20060;-82
2023/09/04 07:40:29;;;;;;;5.32;4.10;;;;;;;19.77;66.52;100935.72;4935101;28;20047;-82
2023/09/04 07:42:55;;;;;;;4.78;3.50;;;;;;;19.85;66.30;100937.56;4936294;28;20545;-82
2023/09/04 07:45:24;;;;;;;4.93;4.20;;;;;;;19.84;66.12;100934.00;4941397;28;20479;-82
2023/09/04 07:47:51;;;;;;;5.45;3.80;;;;;;;19.89;66.53;100937.03;4924964;28;20411;-82
2023/09/04 07:50:18;;;;;;;4.32;3.92;;;;;;;19.82;66.65;100938.75;4938258;28;20043;-82
2023/09/04 07:52:45;;;;;;;4.60;4.13;;;;;;;19.83;66.20;100944.97;4896761;28;20508;-82
2023/09/04 07:55:12;;;;;;;6.57;4.28;;;;;;;19.83;66.35;100947.69;4905971;29;20039;-82
2023/09/04 07:57:39;;;;;;;5.22;3.90;;;;;;;19.81;66.00;100934.34;4951578;28;20070;-82
2023/09/04 08:00:06;;;;;;;4.63;3.80;;;;;;;19.86;66.52;100937.38;4926578;28;20052;-82
2023/09/04 08:02:43;;;;;;;5.97;4.25;;;;;;;19.89;66.89;100934.34;4911323;28;20131;-82
2023/09/04 08:05:09;;;;;;;4.28;3.42;;;;;;;19.95;66.79;100943.63;4940774;28;20111;-82
2023/09/04 08:07:36;;;;;;;5.07;3.88;;;;;;;19.95;66.81;100936.38;4928095;28;20337;-82
2023/09/04 08:10:03;;;;;;;4.75;3.67;;;;;;;19.99;67.08;100934.19;4935905;28;20063;-82
2023/09/04 08:12:30;;;;;;;4.88;3.80;;;;;;;20.04;66.83;100930.97;4940272;28;20128;-82
2023/09/04 08:14:57;;;;;;;4.85;4.13;;;;;;;20.10;66.62;100931.16;4926158;29;20131;-82
2023/09/04 08:17:25;;;;;;;4.60;3.70;;;;;;;20.12;66.71;100931.81;4926006;28;20099;-82
2023/09/04 08:19:52;;;;;;;4.50;3.97;;;;;;;20.17;67.05;100937.53;4912222;28;20042;-82
2023/09/04 08:22:19;;;;;;;4.60;3.50;;;;;;;20.19;66.60;100936.50;4944473;28;20039;-82
2023/09/04 08:24:48;;;;;;;5.05;3.78;;;;;;;20.22;65.97;100934.31;4939353;28;20054;-82
2023/09/04 08:27:15;;;;;;;5.35;3.92;;;;;;;20.23;65.54;100929.78;4932151;28;20107;-82
2023/09/04 08:29:42;;;;;;;6.38;3.28;;;;;;;20.18;65.56;100922.19;4939715;28;20095;-82
2023/09/04 08:32:09;;;;;;;6.10;3.67;;;;;;;20.22;66.08;100925.38;4911180;28;20039;-82
2023/09/04 08:34:35;;;;;;;3.95;3.47;;;;;;;20.25;66.10;100923.19;4913134;28;20146;-82
2023/09/04 08:37:02;;;;;;;6.32;4.13;;;;;;;20.32;65.83;100923.34;4945298;28;20130;-82
2023/09/04 08:39:29;;;;;;;4.10;3.53;;;;;;;20.36;66.06;100925.50;4929746;28;20052;-82
2023/09/04 08:41:56;;;;;;;5.18;3.67;;;;;;;20.39;65.38;100924.31;4906475;28;20052;-82
2023/09/04 08:44:23;;;;;;;4.40;4.00;;;;;;;20.42;65.37;100917.75;4925679;28;20048;-83
2023/09/04 08:46:51;;;;;;;3.83;3.53;;;;;;;20.46;66.03;100919.94;4923991;28;20054;-82
2023/09/04 08:49:18;;;;;;;4.15;3.70;;;;;;;20.52;66.15;100911.13;4940881;28;20047;-82
2023/09/04 08:51:45;;;;;;;6.43;3.70;;;;;;;20.57;65.86;100914.16;4925594;28;20046;-82
2023/09/04 08:54:12;;;;;;;4.05;3.60;;;;;;;20.60;65.29;100913.81;4952186;28;20127;-82
2023/09/04 08:56:39;;;;;;;5.60;3.78;;;;;;;20.66;65.45;100916.81;4936272;28;20047;-82
2023/09/04 08:59:06;;;;;;;5.85;3.95;;;;;;;20.67;65.21;100916.66;4926134;28;20054;-83
2023/09/04 09:01:33;;;;;;;3.55;3.25;;;;;;;20.71;64.19;100906.34;4926074;28;20129;-82
2023/09/04 09:04:02;;;;;;;4.50;3.70;;;;;;;20.70;64.13;100908.22;4928228;28;20055;-82
2023/09/04 09:06:29;;;;;;;4.05;3.40;;;;;;;20.72;64.23;100906.19;4934024;28;20054;-82
2023/09/04 09:08:58;;;;;;;3.80;3.42;;;;;;;20.75;64.47;100913.91;4914440;28;20099;-82
2023/09/04 09:11:25;;;;;;;3.95;3.55;;;;;;;20.78;64.33;100918.13;4925680;28;20059;-82
2023/09/04 09:13:52;;;;;;;2.90;2.70;;;;;;;20.78;63.56;100918.13;4927444;28;20555;-82
2023/09/04 09:16:22;;;;;;;3.67;2.85;;;;;;;20.85;63.14;100919.13;4911273;28;20039;-82
2023/09/04 09:18:53;;;;;;;3.00;2.78;;;;;;;20.87;62.25;100921.66;4924812;28;20047;-82
2023/09/04 09:21:23;;;;;;;3.53;2.70;;;;;;;20.90;62.13;100916.72;4942923;28;20134;-83
2023/09/04 09:24:10;;;;;;;2.88;2.67;;;;;;;20.84;58.62;100928.25;4923609;28;20057;-82
2023/09/04 09:26:38;;;;;;;3.17;2.88;;;;;;;20.94;61.05;100915.38;4942684;28;20047;-82
2023/09/04 09:29:08;;;;;;;3.58;2.88;;;;;;;20.96;61.15;100910.63;4938975;28;20044;-82
2023/09/04 09:31:36;;;;;;;2.80;2.50;;;;;;;21.00;61.20;100905.69;4920314;28;20063;-83
2023/09/04 09:34:03;;;;;;;3.05;2.70;;;;;;;21.03;61.30;100914.28;4893858;28;20440;-83
2023/09/04 09:36:30;;;;;;;3.58;2.42;;;;;;;21.05;60.77;100903.31;4909677;28;20107;-82
2023/09/04 09:38:56;;;;;;;3.00;2.65;;;;;;;21.06;60.88;100907.69;4927309;28;20537;-82
2023/09/04 09:41:25;;;;;;;3.55;3.00;;;;;;;21.09;59.93;100903.78;4922623;28;20123;-82
2023/09/04 09:43:52;;;;;;;2.90;2.53;;;;;;;21.09;60.63;100892.97;4928151;28;20049;-82
2023/09/04 09:46:19;;;;;;;3.13;2.58;;;;;;;21.12;60.08;100889.94;4952576;28;20050;-82
2023/09/04 09:48:49;;;;;;;2.85;2.50;;;;;;;21.16;60.28;100891.25;4926143;28;20063;-82
2023/09/04 09:51:16;;;;;;;3.13;2.83;;;;;;;21.20;59.96;100888.03;4906106;28;20039;-82
2023/09/04 09:53:50;;;;;;;3.17;2.85;;;;;;;21.20;58.91;100888.03;4919610;28;20127;-82
2023/09/04 09:56:18;;;;;;;3.03;2.72;;;;;;;21.21;58.59;100887.00;4928851;28;20062;-82
2023/09/04 09:58:46;;;;;;;3.38;2.72;;;;;;;21.23;59.19;100884.13;4928191;28;20047;-82
2023/09/04 10:01:14;;;;;;;3.97;3.00;;;;;;;21.25;59.25;100879.38;4933763;28;20065;-82
2023/09/04 10:03:43;;;;;;;3.00;2.70;;;;;;;21.27;58.99;100882.75;4942608;28;20058;-82
2023/09/04 10:06:21;;;;;;;3.05;2.70;;;;;;;21.28;58.70;100873.63;4936378;28;20075;-83
2023/09/04 10:08:50;;;;;;;3.45;2.90;;;;;;;21.30;58.29;100874.28;4935818;28;20035;-82
2023/09/04 10:11:17;;;;;;;2.88;2.53;;;;;;;21.34;58.53;100862.06;4920400;28;20043;-82
2023/09/04 10:13:46;;;;;;;4.43;2.90;;;;;;;21.38;57.93;100857.16;4924584;28;20094;-83
2023/09/04 10:16:16;;;;;;;2.85;2.42;;;;;;;21.40;57.78;100860.56;4922173;28;20042;-83
2023/09/04 10:18:44;;;;;;;4.10;2.65;;;;;;;21.42;57.84;100862.06;4922217;28;20046;-83
2023/09/04 10:21:14;;;;;;;2.70;2.50;;;;;;;21.44;56.99;100860.00;4937963;28;20154;-83
2023/09/04 10:23:45;;;;;;;3.20;2.33;;;;;;;21.48;56.76;100851.53;4927558;28;20107;-83
2023/09/04 10:26:45;;;;;;;3.13;2.53;;;;;;;21.50;57.23;100852.19;4943833;28;20049;-83
2023/09/04 10:29:17;;;;;;;3.55;2.83;;;;;;;21.49;55.70;100853.22;4915064;28;20039;-83
2023/09/04 10:31:44;;;;;;;2.65;2.45;;;;;;;21.53;55.43;100849.13;4910255;28;20110;-83
2023/09/04 10:34:11;;;;;;;3.38;2.20;;;;;;;21.55;54.46;100844.38;4920966;29;20130;-82
2023/09/04 10:36:38;;;;;;;2.42;2.22;;;;;;;21.57;54.10;100840.44;4932636;28;20058;-82
2023/09/04 10:39:06;;;;;;;3.75;2.20;;;;;;;21.58;53.96;100836.75;4940247;28;20040;-83
2023/09/04 10:41:34;;;;;;;2.50;2.28;;;;;;;21.59;53.96;100838.41;4936754;28;20044;-83
2023/09/04 10:44:01;;;;;;;2.35;2.15;;;;;;;21.60;53.40;100826.59;4954348;28;20137;-83
2023/09/04 10:46:28;;;;;;;2.60;2.40;;;;;;;21.64;53.93;100827.88;4949703;28;20487;-82
2023/09/04 10:48:55;;;;;;;3.33;2.30;;;;;;;21.66;53.92;100815.03;4952104;28;20055;-83
2023/09/04 10:51:35;;;;;;;2.65;2.40;;;;;;;21.67;53.24;100816.69;4940879;28;20129;-82
2023/09/04 10:54:10;;;;;;;3.08;2.55;;;;;;;21.69;53.69;100813.84;4948777;28;20111;-83
2023/09/04 10:56:52;;;;;;;3.10;2.22;;;;;;;21.65;53.94;100807.97;4927728;28;20511;-82
2023/09/04 10:59:19;;;;;;;2.30;2.00;;;;;;;21.74;53.74;100813.28;4922909;28;20048;-83
2023/09/04 11:01:46;;;;;;;2.95;2.03;;;;;;;21.77;53.55;100805.63;4919611;28;20062;-82
2023/09/04 11:04:26;;;;;;;2.78;2.40;;;;;;;21.73;52.34;100809.75;4923664;28;20126;-82
2023/09/04 11:07:21;;;;;;;3.72;2.20;;;;;;;21.73;51.44;100796.22;4938361;28;20094;-82
2023/09/04 11:09:51;;;;;;;2.88;2.45;;;;;;;21.82;51.76;100807.78;4920003;28;20058;-82
2023/09/04 11:12:19;;;;;;;3.08;2.53;;;;;;;21.85;51.56;100802.84;4908669;28;20478;-82
2023/09/04 11:14:47;;;;;;;2.53;2.10;;;;;;;21.88;51.61;100799.78;4893853;29;20058;-83
2023/09/04 11:17:15;;;;;;;2.58;2.13;;;;;;;21.89;51.50;100797.91;4903500;28;20047;-82
2023/09/04 11:19:43;;;;;;;2.60;2.15;;;;;;;21.91;51.49;100793.16;4942395;28;20069;-82
2023/09/04 11:22:19;;;;;;;3.58;2.28;;;;;;;21.91;51.85;100790.47;4925468;28;20514;-82
2023/09/04 11:24:46;;;;;;;2.42;2.20;;;;;;;21.96;51.48;100792.59;4926246;29;20380;-83
2023/09/04 11:27:12;;;;;;;2.35;1.83;;;;;;;21.98;51.82;100795.94;4945794;28;20500;-82
2023/09/04 11:29:39;;;;;;;3.30;2.30;;;;;;;21.99;50.85;100784.94;4941110;28;20466;-82